Time;durP1;ratioP1;P1;durP2;ratioP2;P2;SDS_P1;SDS_P2;PMS_P1;PMS_P2;Temp;Humidity;BMP_temperature;BMP_pressure;BME280_temperature;BME280_humidity;BME280_pressure;Samples;Min_cycle;Max_cycle;Signal;HPM_P1;HPM_P2
2023/07/26 00:00:05;;;;;;;6.85;2.05;;;;;;;15.95;66.66;100949.94;7395044;19;20022;-60
2023/07/26 00:02:33;;;;;;;5.45;1.70;;;;;;;15.97;66.68;100944.47;7395857;19;20098;-61
2023/07/26 00:05:00;;;;;;;6.45;2.08;;;;;;;15.84;66.68;100948.28;7395161;19;20073;-59
2023/07/26 00:07:28;;;;;;;5.78;1.77;;;;;;;15.82;66.97;100944.88;7394222;19;20019;-61
2023/07/26 00:09:55;;;;;;;6.55;2.03;;;;;;;15.81;66.93;100937.03;7394587;19;20029;-60
2023/07/26 00:12:22;;;;;;;5.72;1.88;;;;;;;15.80;66.65;100944.22;7393066;19;20035;-61
2023/07/26 00:14:50;;;;;;;6.78;1.90;;;;;;;15.84;66.77;100942.09;7393484;19;20015;-60
2023/07/26 00:17:17;;;;;;;6.13;2.00;;;;;;;15.83;66.80;100946.59;7395129;19;20369;-60
2023/07/26 00:19:44;;;;;;;6.78;1.77;;;;;;;15.85;66.96;100943.78;7394707;19;20014;-61
2023/07/26 00:22:12;;;;;;;6.70;1.80;;;;;;;15.86;66.90;100952.63;7393621;19;20022;-60
2023/07/26 00:24:39;;;;;;;6.93;1.75;;;;;;;15.91;66.73;100953.91;7395019;19;20025;-61
2023/07/26 00:27:06;;;;;;;4.82;1.85;;;;;;;15.84;67.02;100950.94;7395462;19;20029;-59
2023/07/26 00:29:34;;;;;;;6.97;1.80;;;;;;;15.86;67.25;100958.81;7394536;19;20047;-60
2023/07/26 00:32:01;;;;;;;5.00;1.83;;;;;;;15.95;66.67;100960.63;7392900;19;20508;-61
2023/07/26 00:34:29;;;;;;;4.93;2.08;;;;;;;15.90;66.87;100962.88;7398174;19;20121;-61
2023/07/26 00:36:56;;;;;;;3.85;1.73;;;;;;;15.89;66.94;100965.69;7394096;19;20014;-61
2023/07/26 00:39:23;;;;;;;6.30;1.98;;;;;;;15.85;67.12;100965.13;7393799;19;20093;-60
2023/07/26 00:41:50;;;;;;;6.70;2.20;;;;;;;15.73;67.75;100956.44;7397281;19;20029;-59
2023/07/26 00:44:18;;;;;;;5.32;1.98;;;;;;;15.84;67.19;100966.97;7394899;19;20105;-60
2023/07/26 00:46:45;;;;;;;5.10;1.75;;;;;;;15.81;67.27;100971.75;7393475;19;20018;-60
2023/07/26 00:49:13;;;;;;;4.68;1.73;;;;;;;15.76;67.45;100972.19;7394547;19;20097;-60
2023/07/26 00:51:41;;;;;;;5.45;2.05;;;;;;;15.86;66.99;100964.16;7392849;19;20042;-61
2023/07/26 00:54:09;;;;;;;6.43;1.98;;;;;;;15.95;66.62;100968.66;7394605;19;20018;-60
2023/07/26 00:56:37;;;;;;;8.77;2.22;;;;;;;15.89;67.00;100971.88;7393568;19;20015;-60
2023/07/26 00:59:04;;;;;;;5.90;2.20;;;;;;;15.91;66.93;100974.41;7392717;19;20039;-60
2023/07/26 01:01:34;;;;;;;8.43;2.08;;;;;;;15.82;67.05;100974.28;7391496;19;20022;-60
2023/07/26 01:04:01;;;;;;;7.07;2.15;;;;;;;15.70;67.08;100970.06;7392014;19;20114;-59
2023/07/26 01:07:09;;;;;;;7.43;2.30;;;;;;;15.80;66.96;100967.41;7393824;19;20022;-61
2023/07/26 01:09:55;;;;;;;6.00;1.90;;;;;;;15.77;67.04;100973.84;7393783;19;20074;-61
2023/07/26 01:12:39;;;;;;;5.25;1.67;;;;;;;15.78;67.04;100972.03;7391511;19;20115;-61
2023/07/26 01:15:14;;;;;;;6.32;1.98;;;;;;;15.76;66.88;100961.50;7392949;19;20015;-61
2023/07/26 01:17:44;;;;;;;7.85;1.85;;;;;;;15.73;66.92;100975.13;7392409;19;20018;-61
2023/07/26 01:20:12;;;;;;;7.15;2.35;;;;;;;15.74;66.94;100965.28;7392576;19;20026;-61
2023/07/26 01:22:39;;;;;;;6.40;1.90;;;;;;;15.75;66.98;100966.97;7393329;19;20124;-61
2023/07/26 01:25:07;;;;;;;5.90;2.00;;;;;;;15.68;67.11;100963.16;7391538;19;20018;-61
2023/07/26 01:27:35;;;;;;;4.80;1.60;;;;;;;15.67;67.24;100966.84;7392141;19;20047;-61
2023/07/26 01:30:02;;;;;;;6.40;2.00;;;;;;;15.72;67.24;100962.78;7390456;19;20022;-61
2023/07/26 01:32:31;;;;;;;5.60;1.85;;;;;;;15.74;66.89;100966.13;7391202;19;20042;-61
2023/07/26 01:34:59;;;;;;;6.20;1.80;;;;;;;15.79;66.86;100963.88;7397035;19;20099;-61
2023/07/26 01:37:27;;;;;;;6.18;1.98;;;;;;;15.74;66.87;100960.78;7393336;19;20021;-62
2023/07/26 01:39:55;;;;;;;5.55;1.67;;;;;;;15.74;66.66;100960.78;7390611;19;20478;-62
2023/07/26 01:42:23;;;;;;;3.50;1.67;;;;;;;15.69;66.90;100968.38;7392316;19;20019;-61
2023/07/26 01:44:51;;;;;;;5.80;2.03;;;;;;;15.63;66.99;100966.22;7391990;19;20010;-61
2023/07/26 01:47:18;;;;;;;5.20;1.77;;;;;;;15.76;66.51;100972.19;7391314;19;20389;-60
2023/07/26 01:49:46;;;;;;;4.80;1.92;;;;;;;15.77;66.63;100963.19;7391158;19;20022;-61
2023/07/26 01:52:13;;;;;;;4.15;1.73;;;;;;;15.75;66.56;100970.47;7388312;19;20354;-61
2023/07/26 01:54:40;;;;;;;5.90;1.60;;;;;;;15.69;66.64;100975.56;7388165;19;20018;-61
2023/07/26 01:57:07;;;;;;;8.23;2.13;;;;;;;15.67;67.13;100977.50;7390993;19;20096;-61
2023/07/26 01:59:35;;;;;;;5.20;2.08;;;;;;;15.73;67.09;100983.13;7387382;19;20484;-61
2023/07/26 02:02:02;;;;;;;7.57;2.40;;;;;;;15.72;67.08;100981.47;7390753;19;20398;-61
2023/07/26 02:04:29;;;;;;;7.57;2.60;;;;;;;15.67;67.39;100977.50;7391504;19;20447;-61
2023/07/26 02:06:57;;;;;;;7.05;2.15;;;;;;;15.51;67.68;100989.56;7391707;19;20083;-60
2023/07/26 02:09:24;;;;;;;5.47;1.90;;;;;;;15.48;67.68;100983.66;7390015;19;20355;-59
2023/07/26 02:11:51;;;;;;;4.82;1.90;;;;;;;15.51;67.50;100986.03;7390940;19;20015;-59
2023/07/26 02:14:19;;;;;;;5.97;1.88;;;;;;;15.48;67.64;100975.66;7391426;19;20018;-59
2023/07/26 02:16:46;;;;;;;5.65;1.77;;;;;;;15.58;67.44;100990.69;7391444;19;20042;-57
2023/07/26 02:19:15;;;;;;;5.60;1.92;;;;;;;15.56;67.51;100986.47;7389965;19;20504;-57
2023/07/26 02:21:43;;;;;;;5.13;1.88;;;;;;;15.64;67.29;100991.94;7390170;19;20501;-51
2023/07/26 02:24:10;;;;;;;7.70;1.73;;;;;;;15.65;67.33;100985.69;7392044;19;20042;-52
2023/07/26 02:26:37;;;;;;;4.85;1.98;;;;;;;15.67;67.53;100989.03;7389515;19;20018;-52
2023/07/26 02:29:05;;;;;;;7.95;1.77;;;;;;;15.68;67.24;100982.72;7391427;19;20028;-50
2023/07/26 02:31:32;;;;;;;5.03;1.70;;;;;;;15.73;66.97;100990.31;7390421;19;20022;-58
2023/07/26 02:33:59;;;;;;;4.63;1.80;;;;;;;15.76;67.10;100982.88;7393578;19;20506;-58
2023/07/26 02:36:27;;;;;;;4.75;1.60;;;;;;;15.65;67.24;100980.34;7389942;19;20018;-56
2023/07/26 02:38:54;;;;;;;4.72;1.85;;;;;;;15.71;67.42;100984.25;7388508;19;20014;-55
2023/07/26 02:41:22;;;;;;;4.68;1.83;;;;;;;15.69;67.14;100983.56;7390617;19;20025;-55
2023/07/26 02:43:49;;;;;;;6.28;1.77;;;;;;;15.62;67.57;100985.91;7391393;19;20037;-51
2023/07/26 02:46:16;;;;;;;5.00;1.65;;;;;;;15.64;67.51;100972.41;7390565;19;20007;-58
2023/07/26 02:48:44;;;;;;;5.35;1.63;;;;;;;15.72;67.28;100986.81;7390623;19;20035;-57
2023/07/26 02:51:11;;;;;;;4.90;1.60;;;;;;;15.63;67.56;100990.25;7390995;19;20018;-55
2023/07/26 02:53:38;;;;;;;6.97;1.90;;;;;;;15.58;67.87;100987.19;7390362;19;20018;-56
2023/07/26 02:56:05;;;;;;;3.65;1.77;;;;;;;15.65;67.56;100995.47;7388312;19;20576;-55
2023/07/26 02:58:33;;;;;;;4.43;1.70;;;;;;;15.63;67.39;100979.59;7390613;19;20010;-55
2023/07/26 03:01:00;;;;;;;5.07;2.00;;;;;;;15.53;67.58;100981.41;7388759;19;20029;-56
2023/07/26 03:03:28;;;;;;;4.95;1.77;;;;;;;15.46;68.08;100988.31;7391019;19;20350;-55
2023/07/26 03:05:58;;;;;;;6.43;1.73;;;;;;;15.56;67.72;100991.81;7389423;19;20015;-52
2023/07/26 03:08:26;;;;;;;5.18;2.20;;;;;;;15.60;67.41;100990.53;7390279;19;20022;-57
2023/07/26 03:10:53;;;;;;;8.30;2.17;;;;;;;15.57;67.72;100983.66;7388748;19;20097;-57
2023/07/26 03:13:21;;;;;;;5.70;1.88;;;;;;;15.58;67.56;100993.34;7387027;19;20022;-53
2023/07/26 03:15:48;;;;;;;4.07;1.90;;;;;;;15.52;67.65;100990.41;7389119;19;20483;-57
2023/07/26 03:18:16;;;;;;;6.32;2.00;;;;;;;15.46;67.80;100985.63;7388820;19;20015;-56
2023/07/26 03:20:47;;;;;;;7.32;2.15;;;;;;;15.44;67.68;100983.09;7388305;19;20019;-57
2023/07/26 03:23:14;;;;;;;4.88;2.30;;;;;;;15.31;68.55;100993.19;7389978;19;20036;-54
2023/07/26 03:25:42;;;;;;;5.70;2.30;;;;;;;15.35;68.21;100991.94;7388510;19;20035;-56
2023/07/26 03:28:10;;;;;;;3.85;1.80;;;;;;;15.41;67.73;100988.69;7390054;19;20094;-54
2023/07/26 03:30:37;;;;;;;5.57;2.13;;;;;;;15.48;67.45;101000.50;7386558;19;20017;-50
2023/07/26 03:33:04;;;;;;;6.15;2.10;;;;;;;15.41;67.73;100996.69;7389171;19;20010;-57
2023/07/26 03:35:32;;;;;;;4.75;1.92;;;;;;;15.43;67.84;100991.25;7389083;19;20465;-58
2023/07/26 03:37:59;;;;;;;4.95;1.92;;;;;;;15.52;67.39;101001.06;7387946;19;20348;-58
2023/07/26 03:40:26;;;;;;;5.95;2.05;;;;;;;15.52;67.49;100995.72;7387746;19;20078;-60
2023/07/26 03:42:54;;;;;;;6.80;2.22;;;;;;;15.47;67.41;100995.31;7388061;19;20050;-58
2023/07/26 03:45:21;;;;;;;7.93;2.15;;;;;;;15.41;67.64;100993.19;7386406;19;20047;-60
2023/07/26 03:47:48;;;;;;;6.53;2.00;;;;;;;15.48;67.50;101003.16;7387984;19;20018;-60
2023/07/26 03:50:16;;;;;;;5.47;2.28;;;;;;;15.46;67.35;101007.81;7389949;19;20401;-60
2023/07/26 03:52:43;;;;;;;5.55;2.10;;;;;;;15.35;67.87;101007.94;7391638;19;20018;-59
2023/07/26 03:55:10;;;;;;;5.75;2.40;;;;;;;15.43;67.54;100997.41;7396095;19;20055;-59
2023/07/26 03:57:37;;;;;;;7.78;2.50;;;;;;;15.47;67.36;101001.50;7397117;19;20042;-59
2023/07/26 04:00:05;;;;;;;4.95;2.10;;;;;;;15.42;67.48;101008.25;7394717;19;20042;-59
2023/07/26 04:02:33;;;;;;;6.93;2.40;;;;;;;15.43;67.65;101010.75;7396234;19;20019;-59
2023/07/26 04:05:04;;;;;;;6.53;2.20;;;;;;;15.32;68.02;101017.06;7396068;19;20014;-58
2023/07/26 04:07:32;;;;;;;5.20;2.10;;;;;;;15.43;67.65;101015.25;7396029;19;20021;-58
2023/07/26 04:10:00;;;;;;;6.80;2.20;;;;;;;15.45;67.37;101014.13;7394582;19;20037;-58
2023/07/26 04:12:28;;;;;;;5.95;2.25;;;;;;;15.47;67.43;101009.50;7393412;19;20021;-59
2023/07/26 04:14:55;;;;;;;5.90;2.35;;;;;;;15.46;67.62;101020.31;7395393;19;20019;-58
2023/07/26 04:17:22;;;;;;;6.95;2.22;;;;;;;15.45;67.74;101016.78;7396117;19;20018;-59
2023/07/26 04:19:51;;;;;;;4.97;2.20;;;;;;;15.41;67.86;101023.38;7394468;19;20022;-58
2023/07/26 04:22:18;;;;;;;3.58;1.55;;;;;;;15.44;67.62;101028.47;7396398;19;20033;-58
2023/07/26 04:24:46;;;;;;;8.45;2.65;;;;;;;15.41;67.87;101034.06;7394654;19;20018;-58
2023/07/26 04:27:13;;;;;;;7.80;2.20;;;;;;;15.47;67.53;101028.19;7395754;19;20021;-59
2023/07/26 04:29:42;;;;;;;5.53;1.95;;;;;;;15.56;67.43;101029.19;7394128;19;20032;-58
2023/07/26 04:32:09;;;;;;;6.22;2.65;;;;;;;15.56;67.40;101038.03;7394347;19;20523;-58
2023/07/26 04:34:37;;;;;;;5.18;2.60;;;;;;;15.56;67.46;101042.53;7397003;19;20235;-59
2023/07/26 04:37:04;;;;;;;5.65;2.00;;;;;;;15.58;67.48;101037.91;7395397;19;20029;-58
2023/07/26 04:39:31;;;;;;;5.75;2.13;;;;;;;15.57;67.40;101038.91;7394946;19;20022;-59
2023/07/26 04:41:59;;;;;;;5.57;2.33;;;;;;;15.49;67.57;101038.72;7393065;19;20100;-59
2023/07/26 04:44:26;;;;;;;4.25;2.00;;;;;;;15.56;67.50;101039.84;7394775;19;20067;-58
2023/07/26 04:46:53;;;;;;;6.90;2.53;;;;;;;15.58;67.37;101043.25;7394550;19;20014;-59
2023/07/26 04:49:21;;;;;;;7.38;2.38;;;;;;;15.66;67.05;101042.56;7393977;19;20025;-58
2023/07/26 04:51:48;;;;;;;8.55;2.28;;;;;;;15.49;67.46;101044.91;7394471;19;20046;-58
2023/07/26 04:54:15;;;;;;;6.70;2.20;;;;;;;15.51;67.54;101042.94;7393222;19;20022;-58
2023/07/26 04:56:42;;;;;;;8.10;2.70;;;;;;;15.50;67.70;101043.09;7394114;19;20135;-59
2023/07/26 04:59:10;;;;;;;4.00;2.10;;;;;;;15.49;67.60;101046.72;7394107;19;20357;-59
2023/07/26 05:01:37;;;;;;;5.07;2.22;;;;;;;15.58;67.29;101052.09;7392061;19;20029;-59
2023/07/26 05:04:04;;;;;;;5.35;2.30;;;;;;;15.63;67.42;101059.69;7394430;19;20127;-58
2023/07/26 05:06:32;;;;;;;5.68;2.33;;;;;;;15.67;66.82;101047.75;7394026;19;20363;-59
2023/07/26 05:08:59;;;;;;;9.50;2.40;;;;;;;15.69;67.18;101064.50;7393560;19;20032;-59
2023/07/26 05:11:27;;;;;;;7.32;2.47;;;;;;;15.74;66.91;101056.06;7394464;19;20030;-59
2023/07/26 05:13:54;;;;;;;6.55;2.10;;;;;;;15.82;66.88;101070.41;7392046;19;20011;-59
2023/07/26 05:16:22;;;;;;;6.63;2.20;;;;;;;15.75;67.12;101069.28;7393185;19;20022;-56
2023/07/26 05:18:49;;;;;;;7.35;2.60;;;;;;;15.77;67.18;101071.81;7394093;19;20018;-58
2023/07/26 05:21:16;;;;;;;5.32;2.38;;;;;;;15.78;67.10;101079.69;7394588;19;20589;-58
2023/07/26 05:23:44;;;;;;;9.20;2.70;;;;;;;15.80;67.32;101075.06;7393531;19;20028;-58
2023/07/26 05:26:11;;;;;;;6.18;2.58;;;;;;;15.79;67.26;101078.69;7392931;19;20015;-57
2023/07/26 05:28:38;;;;;;;5.55;2.30;;;;;;;15.90;67.31;101080.41;7393578;19;20082;-59
2023/07/26 05:31:06;;;;;;;4.50;2.13;;;;;;;15.98;67.08;101080.53;7391526;19;20022;-60
2023/07/26 05:33:33;;;;;;;7.07;2.90;;;;;;;16.01;66.95;101076.75;7393323;19;20141;-60
2023/07/26 05:36:00;;;;;;;6.78;2.42;;;;;;;15.93;67.24;101068.59;7392613;19;20022;-60
2023/07/26 05:38:28;;;;;;;8.00;2.50;;;;;;;15.93;67.35;101074.78;7393082;19;20015;-60
2023/07/26 05:41:02;;;;;;;8.68;2.60;;;;;;;15.98;67.16;101079.69;7391158;19;20021;-60
2023/07/26 05:43:29;;;;;;;5.85;2.42;;;;;;;15.99;67.33;101081.41;7391321;19;20030;-59
2023/07/26 05:45:56;;;;;;;5.90;2.50;;;;;;;16.06;66.83;101078.03;7392373;19;20095;-60
2023/07/26 05:48:24;;;;;;;6.93;2.70;;;;;;;16.09;66.98;101087.56;7391367;19;20015;-60
2023/07/26 05:50:51;;;;;;;6.78;2.63;;;;;;;16.14;66.90;101085.34;7391139;19;20129;-60
2023/07/26 05:53:18;;;;;;;7.40;2.63;;;;;;;16.21;66.74;101090.94;7391743;19;20043;-60
2023/07/26 05:55:46;;;;;;;6.93;2.35;;;;;;;16.13;66.90;101085.47;7391656;19;20014;-60
2023/07/26 05:58:13;;;;;;;8.80;2.80;;;;;;;16.07;67.08;101095.75;7392511;19;20010;-60
2023/07/26 06:00:40;;;;;;;5.22;2.30;;;;;;;16.11;67.32;101098.97;7388879;19;20486;-60
2023/07/26 06:03:08;;;;;;;6.88;2.45;;;;;;;16.05;67.76;101095.03;7392162;19;20507;-60
2023/07/26 06:05:35;;;;;;;6.35;2.85;;;;;;;15.97;67.83;101097.56;7392018;19;20042;-59
2023/07/26 06:08:02;;;;;;;7.18;3.05;;;;;;;15.93;67.97;101097.97;7392036;19;20015;-58
2023/07/26 06:10:30;;;;;;;7.28;2.78;;;;;;;15.99;67.77;101092.09;7390748;19;20015;-57
2023/07/26 06:12:57;;;;;;;5.65;2.97;;;;;;;16.05;67.68;101099.53;7389294;19;20014;-57
2023/07/26 06:15:25;;;;;;;6.75;2.50;;;;;;;16.09;67.71;101101.78;7391570;19;20052;-61
2023/07/26 06:17:52;;;;;;;6.10;2.72;;;;;;;16.06;67.93;101102.09;7391643;19;20133;-59
2023/07/26 06:20:20;;;;;;;5.85;2.28;;;;;;;16.03;68.04;101096.16;7391046;19;20026;-59
2023/07/26 06:22:47;;;;;;;6.95;2.75;;;;;;;15.99;68.26;101103.63;7392320;19;20081;-59
2023/07/26 06:25:14;;;;;;;7.88;3.28;;;;;;;16.08;67.88;101100.09;7390690;19;20496;-59
2023/07/26 06:27:42;;;;;;;7.63;2.55;;;;;;;16.09;68.08;101098.25;7391769;19;20025;-59
2023/07/26 06:30:10;;;;;;;4.93;2.55;;;;;;;16.17;67.91;101098.41;7390604;19;20022;-59
2023/07/26 06:32:37;;;;;;;4.90;2.53;;;;;;;16.33;67.40;101088.00;7391404;19;20014;-59
2023/07/26 06:35:05;;;;;;;5.75;2.40;;;;;;;16.49;66.81;101100.78;7393833;19;20046;-59
2023/07/26 06:37:32;;;;;;;5.75;2.20;;;;;;;16.65;66.39;101094.84;7391883;19;20055;-59
2023/07/26 06:39:59;;;;;;;10.05;2.90;;;;;;;16.82;65.58;101098.63;7388421;19;20022;-59
2023/07/26 06:42:27;;;;;;;6.78;2.85;;;;;;;16.85;65.21;101097.50;7391769;19;20022;-59
2023/07/26 06:44:54;;;;;;;6.70;2.45;;;;;;;16.70;65.50;101092.56;7390202;19;20011;-59
2023/07/26 06:47:22;;;;;;;9.00;2.35;;;;;;;16.70;65.94;101086.38;7389393;19;20015;-59
2023/07/26 06:49:49;;;;;;;6.10;2.42;;;;;;;16.86;65.12;101099.16;7388127;19;20425;-62
2023/07/26 06:52:17;;;;;;;6.88;2.45;;;;;;;16.90;65.27;101097.88;7390738;19;20019;-58
2023/07/26 06:54:44;;;;;;;7.30;2.53;;;;;;;16.92;64.32;101098.59;7388886;19;20041;-59
2023/07/26 06:57:11;;;;;;;8.63;2.60;;;;;;;16.76;64.68;101096.53;7389585;19;20018;-57
2023/07/26 06:59:39;;;;;;;6.97;2.38;;;;;;;16.73;64.72;101100.34;7389717;19;20467;-56
2023/07/26 07:02:06;;;;;;;6.93;2.40;;;;;;;16.68;65.19;101086.53;7390442;19;20059;-57
2023/07/26 07:04:34;;;;;;;6.63;2.60;;;;;;;16.66;65.53;101088.50;7389997;19;20019;-57
2023/07/26 07:07:02;;;;;;;6.80;3.00;;;;;;;16.63;65.37;101091.44;7388205;19;20022;-58
2023/07/26 07:09:29;;;;;;;6.18;2.75;;;;;;;16.70;65.36;101097.91;7389728;19;20018;-58
2023/07/26 07:11:56;;;;;;;6.18;2.67;;;;;;;16.89;64.77;101097.06;7390455;19;20024;-58
2023/07/26 07:14:24;;;;;;;5.57;1.95;;;;;;;16.97;64.41;101097.16;7388413;19;20089;-57
2023/07/26 07:16:51;;;;;;;5.47;2.47;;;;;;;17.09;63.93;101094.31;7388891;19;20014;-58
2023/07/26 07:19:18;;;;;;;5.57;2.20;;;;;;;17.35;63.37;101099.81;7389800;19;20090;-58
2023/07/26 07:21:46;;;;;;;5.60;2.20;;;;;;;17.40;62.82;101097.53;7389994;19;20038;-59
2023/07/26 07:24:13;;;;;;;5.70;2.22;;;;;;;17.33;62.72;101091.97;7390183;19;20085;-59
2023/07/26 07:26:41;;;;;;;7.68;2.05;;;;;;;17.24;62.69;101092.81;7395913;19;20022;-58
2023/07/26 07:29:08;;;;;;;7.28;2.38;;;;;;;17.09;63.21;101094.31;7395557;19;20039;-58
2023/07/26 07:31:35;;;;;;;4.93;2.00;;;;;;;17.03;63.45;101093.91;7397554;19;20022;-59
2023/07/26 07:34:03;;;;;;;5.88;2.30;;;;;;;17.05;63.49;101096.44;7395714;19;20364;-58
2023/07/26 07:36:31;;;;;;;4.65;1.80;;;;;;;16.90;64.11;101095.22;7396388;19;20057;-58
2023/07/26 07:38:58;;;;;;;6.18;1.88;;;;;;;17.00;63.20;101104.91;7395640;19;20123;-58
2023/07/26 07:41:25;;;;;;;5.47;1.90;;;;;;;16.95;63.03;101101.84;7397283;19;20039;-58
2023/07/26 07:43:53;;;;;;;5.93;2.00;;;;;;;16.91;63.09;101094.25;7396165;19;20038;-58
2023/07/26 07:46:20;;;;;;;4.20;1.85;;;;;;;16.93;62.59;101094.94;7396341;19;20578;-57
2023/07/26 07:48:47;;;;;;;4.90;1.65;;;;;;;17.00;62.58;101096.03;7394766;19;20022;-58
2023/07/26 07:51:15;;;;;;;6.40;1.80;;;;;;;17.03;62.67;101091.22;7396558;19;20036;-58
2023/07/26 07:53:42;;;;;;;4.57;1.90;;;;;;;17.11;62.66;101092.34;7395299;19;20011;-58
2023/07/26 07:56:10;;;;;;;6.28;1.90;;;;;;;17.23;62.84;101102.69;7394045;19;20018;-58
2023/07/26 07:58:37;;;;;;;3.78;1.60;;;;;;;17.28;62.09;101102.25;7396338;19;20015;-58
2023/07/26 08:01:05;;;;;;;5.32;1.80;;;;;;;17.32;61.87;101109.00;7391305;19;20496;-58
2023/07/26 08:03:33;;;;;;;3.88;1.70;;;;;;;17.37;61.87;101109.41;7396760;19;20025;-59
2023/07/26 08:06:00;;;;;;;4.53;1.73;;;;;;;17.33;61.19;101113.38;7395569;19;20035;-59
2023/07/26 08:08:28;;;;;;;5.03;2.03;;;;;;;17.32;61.38;101113.50;7394625;19;20075;-59
2023/07/26 08:10:55;;;;;;;4.65;1.80;;;;;;;17.26;60.89;101110.44;7392726;19;20017;-62
2023/07/26 08:13:22;;;;;;;5.00;2.03;;;;;;;17.42;60.81;101117.81;7395486;19;20023;-62
2023/07/26 08:15:50;;;;;;;5.05;1.85;;;;;;;17.54;60.86;101123.81;7395478;19;20062;-62
2023/07/26 08:18:17;;;;;;;4.32;1.85;;;;;;;17.67;60.19;101120.81;7396294;19;20025;-63
2023/07/26 08:20:45;;;;;;;4.90;1.77;;;;;;;17.82;59.46;101127.38;7393869;19;20019;-62
2023/07/26 08:23:12;;;;;;;5.75;1.90;;;;;;;17.87;59.12;101117.03;7396057;19;20018;-63
2023/07/26 08:25:41;;;;;;;3.13;1.52;;;;;;;17.96;58.00;101112.59;7395291;19;20046;-62
2023/07/26 08:28:08;;;;;;;3.20;1.65;;;;;;;17.89;58.19;101106.16;7394231;19;20018;-62
2023/07/26 08:30:36;;;;;;;5.45;1.48;;;;;;;17.96;57.85;101105.41;7394473;19;20357;-63
2023/07/26 08:33:03;;;;;;;4.05;1.38;;;;;;;17.83;57.37;101114.81;7394121;19;20022;-64
2023/07/26 08:35:31;;;;;;;6.80;1.55;;;;;;;17.85;57.45;101118.16;7394559;19;20059;-64
2023/07/26 08:37:58;;;;;;;4.10;1.70;;;;;;;17.92;56.93;101113.91;7392199;19;20015;-64
2023/07/26 08:40:25;;;;;;;6.50;1.60;;;;;;;17.88;57.02;101109.84;7394463;19;20172;-62
2023/07/26 08:42:56;;;;;;;5.82;1.92;;;;;;;17.81;56.91;101117.63;7394521;19;20044;-60
2023/07/26 08:45:25;;;;;;;2.40;1.40;;;;;;;17.85;56.68;101123.53;7394472;19;20018;-62
2023/07/26 08:47:54;;;;;;;4.15;1.50;;;;;;;18.20;55.36;101103.94;7394099;19;20014;-64
2023/07/26 08:50:23;;;;;;;5.55;1.80;;;;;;;18.31;55.22;101110.91;7393846;19;20022;-64
2023/07/26 08:52:50;;;;;;;3.35;1.70;;;;;;;18.39;55.39;101105.59;7395609;19;20022;-61
2023/07/26 08:55:18;;;;;;;3.25;1.45;;;;;;;18.45;54.77;101110.34;7391803;19;20022;-61
2023/07/26 08:57:45;;;;;;;3.08;1.38;;;;;;;18.37;54.40;101100.41;7394401;19;20027;-61
2023/07/26 09:00:13;;;;;;;3.30;1.63;;;;;;;18.30;54.49;101107.38;7393766;19;20030;-67
2023/07/26 09:02:43;;;;;;;7.55;1.95;;;;;;;18.42;54.52;101108.81;7394560;19;20019;-67
2023/07/26 09:05:11;;;;;;;4.30;1.75;;;;;;;18.55;54.53;101100.38;7393298;19;20030;-64
2023/07/26 09:07:39;;;;;;;3.85;1.70;;;;;;;18.60;54.40;101100.75;7394239;19;20019;-64
2023/07/26 09:10:06;;;;;;;2.42;1.48;;;;;;;18.63;54.36;101097.75;7391214;19;20747;-61
2023/07/26 09:12:33;;;;;;;3.65;1.77;;;;;;;18.63;54.37;101099.59;7392628;19;20096;-61
2023/07/26 09:15:05;;;;;;;4.85;1.73;;;;;;;18.52;53.58;101103.38;7391408;19;20031;-61
2023/07/26 09:17:37;;;;;;;3.22;1.60;;;;;;;18.43;53.27;101106.97;7394009;19;20031;-62
2023/07/26 09:20:25;;;;;;;4.88;1.70;;;;;;;18.32;54.00;101104.56;7391627;19;20043;-61
2023/07/26 09:23:04;;;;;;;4.13;1.55;;;;;;;18.33;55.44;101125.00;7393795;19;20035;-59
2023/07/26 09:25:34;;;;;;;5.95;1.80;;;;;;;18.25;57.68;101115.06;7392978;19;20043;-60
2023/07/26 09:28:02;;;;;;;4.15;1.65;;;;;;;18.24;58.11;101114.22;7393678;19;20022;-60
2023/07/26 09:30:33;;;;;;;3.67;1.50;;;;;;;18.30;58.06;101109.22;7392767;19;20422;-62
2023/07/26 09:33:01;;;;;;;5.15;1.85;;;;;;;18.24;58.52;101116.06;7393947;19;20010;-61
2023/07/26 09:35:32;;;;;;;5.28;1.60;;;;;;;18.13;58.98;101106.41;7391588;19;20019;-61
2023/07/26 09:38:23;;;;;;;4.65;1.92;;;;;;;18.11;58.50;101103.03;7393167;19;20508;-61
2023/07/26 09:40:50;;;;;;;3.42;1.70;;;;;;;17.93;58.52;101107.53;7391263;19;20014;-62
2023/07/26 09:43:32;;;;;;;4.28;1.60;;;;;;;18.04;57.80;101101.94;7392960;19;20018;-62
2023/07/26 09:46:04;;;;;;;5.63;1.90;;;;;;;18.10;57.59;101100.50;7393114;19;20018;-62
2023/07/26 09:48:34;;;;;;;2.83;1.42;;;;;;;18.17;57.18;101090.84;7391900;19;20014;-61
2023/07/26 09:51:06;;;;;;;3.92;1.55;;;;;;;18.27;56.83;101096.97;7391404;19;20078;-61
2023/07/26 09:53:36;;;;;;;2.95;1.17;;;;;;;18.28;56.15;101087.94;7392555;19;20015;-61
2023/07/26 09:56:05;;;;;;;2.72;1.38;;;;;;;18.46;55.70;101091.41;7392425;19;20017;-62
2023/07/26 09:58:34;;;;;;;5.50;1.60;;;;;;;18.52;55.00;101087.28;7392252;19;20035;-63
2023/07/26 10:01:02;;;;;;;2.85;1.40;;;;;;;18.43;55.00;101091.75;7391254;19;20018;-63
2023/07/26 10:03:33;;;;;;;4.45;1.42;;;;;;;18.52;54.40;101092.66;7392442;19;20018;-62
2023/07/26 10:06:01;;;;;;;4.07;1.55;;;;;;;18.52;54.11;101092.66;7391738;19;20066;-63
2023/07/26 10:08:29;;;;;;;4.60;1.52;;;;;;;18.68;53.08;101082.03;7390595;19;20056;-62
2023/07/26 10:10:58;;;;;;;4.03;1.50;;;;;;;18.92;52.79;101085.88;7390709;19;20026;-62
2023/07/26 10:13:27;;;;;;;3.70;1.40;;;;;;;18.89;52.70;101088.91;7391951;19;20010;-60
2023/07/26 10:15:58;;;;;;;3.50;1.50;;;;;;;18.89;51.88;101084.38;7391008;19;20038;-60
2023/07/26 10:18:28;;;;;;;2.08;1.30;;;;;;;18.94;51.46;101070.47;7391983;19;20018;-59
2023/07/26 10:20:57;;;;;;;2.85;1.42;;;;;;;19.11;51.26;101069.53;7390849;19;20020;-64
2023/07/26 10:23:26;;;;;;;3.83;1.40;;;;;;;19.15;50.49;101072.72;7390206;19;20022;-63
2023/07/26 10:25:59;;;;;;;4.90;1.75;;;;;;;19.19;50.91;101079.47;7386967;19;20501;-63
2023/07/26 10:28:28;;;;;;;4.97;1.70;;;;;;;19.27;50.41;101071.47;7392274;19;20019;-64
2023/07/26 10:30:55;;;;;;;3.28;1.48;;;;;;;19.34;50.49;101071.63;7389795;19;20018;-63
2023/07/26 10:33:23;;;;;;;3.33;1.77;;;;;;;19.52;50.00;101071.53;7392754;19;20022;-63
2023/07/26 10:35:51;;;;;;;3.00;1.60;;;;;;;19.77;50.24;101070.63;7389140;19;20014;-63
2023/07/26 10:38:19;;;;;;;3.15;1.23;;;;;;;19.71;49.65;101077.50;7391649;19;20018;-63
2023/07/26 10:40:47;;;;;;;3.40;1.30;;;;;;;19.63;49.79;101080.16;7387874;19;20019;-62
2023/07/26 10:43:19;;;;;;;1.98;1.00;;;;;;;19.54;49.58;101088.34;7391460;19;20345;-62
2023/07/26 10:45:49;;;;;;;3.58;0.93;;;;;;;19.40;49.30;101084.44;7391211;19;20038;-61
2023/07/26 10:48:37;;;;;;;1.48;0.85;;;;;;;19.38;48.63;101073.84;7390678;19;20035;-61
2023/07/26 10:51:23;;;;;;;4.15;1.20;;;;;;;19.44;48.61;101080.41;7391703;19;20039;-62
2023/07/26 10:53:53;;;;;;;4.30;1.20;;;;;;;19.55;48.91;101077.44;7390734;19;20046;-62
2023/07/26 10:56:26;;;;;;;4.18;1.13;;;;;;;19.54;49.24;101075.75;7390422;19;20026;-62
2023/07/26 10:59:17;;;;;;;2.30;1.20;;;;;;;19.61;49.11;101071.41;7388806;19;20022;-62
2023/07/26 11:01:46;;;;;;;3.30;1.13;;;;;;;19.77;47.48;101064.41;7390122;19;20022;-62
2023/07/26 11:04:19;;;;;;;1.00;0.90;;;;;;;19.70;47.56;101061.53;7390225;19;20044;-61
2023/07/26 11:06:51;;;;;;;2.30;1.30;;;;;;;19.62;47.67;101061.53;7389935;19;20034;-61
2023/07/26 11:09:24;;;;;;;2.88;1.05;;;;;;;19.61;47.76;101060.66;7387796;19;20757;-61
2023/07/26 11:11:55;;;;;;;2.80;1.25;;;;;;;19.58;48.18;101046.72;7388999;19;20026;-60
2023/07/26 11:14:25;;;;;;;2.03;1.13;;;;;;;19.59;48.46;101051.91;7389948;19;20419;-62
2023/07/26 11:16:53;;;;;;;2.17;1.10;;;;;;;19.84;48.39;101054.66;7389882;19;20092;-61
2023/07/26 11:19:25;;;;;;;2.47;1.20;;;;;;;20.06;47.92;101051.31;7390058;19;20015;-61
2023/07/26 11:22:02;;;;;;;3.55;1.35;;;;;;;20.23;47.64;101045.97;7390310;19;20078;-61
2023/07/26 11:24:29;;;;;;;2.17;1.30;;;;;;;20.25;48.46;101049.31;7389575;19;20011;-60
2023/07/26 11:27:03;;;;;;;3.20;1.40;;;;;;;20.19;48.35;101050.84;7388294;19;20026;-61
2023/07/26 11:29:32;;;;;;;2.17;1.10;;;;;;;20.10;48.38;101062.59;7388667;19;20033;-61